Time;durP1;ratioP1;P1;durP2;ratioP2;P2;SDS_P1;SDS_P2;PMS_P1;PMS_P2;Temp;Humidity;BMP_temperature;BMP_pressure;BME280_temperature;BME280_humidity;BME280_pressure;Samples;Min_cycle;Max_cycle;Signal;HPM_P1;HPM_P2
2022/06/15 00:00:52;;;;;;;6.47;3.47;;;14.90;99.90;;;;;;4982256;28;20042;-76
2022/06/15 00:03:18;;;;;;;6.63;3.30;;;14.90;99.90;;;;;;4988932;28;20576;-75
2022/06/15 00:05:44;;;;;;;8.45;3.92;;;14.90;99.90;;;;;;4987105;28;20030;-76
2022/06/15 00:08:11;;;;;;;6.53;3.38;;;14.80;99.90;;;;;;4984941;28;20030;-75
2022/06/15 00:10:37;;;;;;;7.00;3.60;;;14.80;99.90;;;;;;4989204;28;20058;-75
2022/06/15 00:13:03;;;;;;;6.00;3.33;;;14.90;99.90;;;;;;4985520;28;20045;-76
2022/06/15 00:15:28;;;;;;;7.35;3.50;;;14.80;99.90;;;;;;4988901;28;20419;-75
2022/06/15 00:17:54;;;;;;;4.97;3.35;;;14.80;99.90;;;;;;4983647;28;20113;-76
2022/06/15 00:20:20;;;;;;;9.23;4.05;;;14.80;99.90;;;;;;4991609;28;20019;-76
2022/06/15 00:22:45;;;;;;;7.60;3.65;;;14.80;99.90;;;;;;4990071;28;20033;-76
2022/06/15 00:25:13;;;;;;;7.53;3.85;;;14.80;99.90;;;;;;4985343;28;20039;-75
2022/06/15 00:27:38;;;;;;;7.38;4.10;;;14.80;99.90;;;;;;4970295;28;20113;-76
2022/06/15 00:30:05;;;;;;;5.45;3.20;;;14.80;99.90;;;;;;4980947;28;20036;-76
2022/06/15 00:32:31;;;;;;;8.57;3.58;;;14.80;99.90;;;;;;4986921;28;20513;-74
2022/06/15 00:34:57;;;;;;;5.72;3.40;;;14.80;99.90;;;;;;4992131;28;20022;-75
2022/06/15 00:37:23;;;;;;;8.80;4.03;;;14.80;99.90;;;;;;4990118;28;20108;-75
2022/06/15 00:39:49;;;;;;;5.65;2.97;;;14.80;99.90;;;;;;4971604;28;20767;-76
2022/06/15 00:42:15;;;;;;;5.93;3.05;;;14.80;99.90;;;;;;4987090;28;20101;-74
2022/06/15 00:44:44;;;;;;;8.45;3.05;;;14.80;99.90;;;;;;4989978;28;20026;-75
2022/06/15 00:47:23;;;;;;;5.30;3.13;;;14.90;99.90;;;;;;4988603;28;20491;-74
2022/06/15 00:49:54;;;;;;;5.22;3.40;;;14.90;99.90;;;;;;4973861;28;20026;-74
2022/06/15 00:52:56;;;;;;;10.55;4.47;;;14.90;99.90;;;;;;4991062;28;20037;-75
2022/06/15 00:55:25;;;;;;;6.38;3.03;;;14.90;99.90;;;;;;5007040;28;20022;-76
2022/06/15 00:57:52;;;;;;;6.80;2.90;;;14.90;99.90;;;;;;4980673;28;20031;-77
2022/06/15 01:00:19;;;;;;;4.28;3.05;;;14.90;99.90;;;;;;4997147;28;20082;-74
2022/06/15 01:02:45;;;;;;;5.28;3.25;;;14.90;99.90;;;;;;4999076;28;20023;-75
2022/06/15 01:05:18;;;;;;;5.47;3.08;;;14.90;99.90;;;;;;4991926;28;20145;-76
2022/06/15 01:08:17;;;;;;;5.57;2.90;;;14.90;99.90;;;;;;4987915;28;20030;-75
2022/06/15 01:11:14;;;;;;;6.35;3.38;;;14.90;99.90;;;;;;4991963;28;20050;-75
2022/06/15 01:13:45;;;;;;;6.85;3.10;;;14.90;99.90;;;;;;4987517;28;20030;-76
2022/06/15 01:16:11;;;;;;;5.93;3.35;;;14.90;99.90;;;;;;4983828;28;20039;-77
2022/06/15 01:19:15;;;;;;;6.18;3.35;;;14.90;99.90;;;;;;4988676;28;20034;-76
2022/06/15 01:21:50;;;;;;;5.10;2.80;;;14.90;99.90;;;;;;4983662;28;20062;-75
2022/06/15 01:24:34;;;;;;;5.75;2.58;;;14.90;99.90;;;;;;4993458;28;20035;-76
2022/06/15 01:27:21;;;;;;;7.43;3.03;;;14.80;99.90;;;;;;4984606;28;20121;-75
2022/06/15 01:30:07;;;;;;;6.22;2.90;;;14.90;99.90;;;;;;4984095;28;20096;-78
2022/06/15 01:32:59;;;;;;;6.90;3.28;;;14.80;99.90;;;;;;4987368;28;20090;-75
2022/06/15 01:35:31;;;;;;;5.43;2.97;;;14.80;99.90;;;;;;4987591;28;20121;-80
2022/06/15 01:38:22;;;;;;;4.80;2.90;;;14.80;99.90;;;;;;4987995;28;20030;-75
2022/06/15 01:40:54;;;;;;;8.55;2.97;;;14.90;99.90;;;;;;4976781;28;20395;-76
2022/06/15 01:43:26;;;;;;;6.07;3.28;;;14.90;99.90;;;;;;4987592;28;20561;-76
2022/06/15 01:45:52;;;;;;;5.68;2.92;;;14.90;99.90;;;;;;4983813;28;20027;-77
2022/06/15 01:48:19;;;;;;;5.97;2.90;;;14.90;99.90;;;;;;4985116;28;20105;-77
2022/06/15 01:50:54;;;;;;;7.15;3.05;;;14.90;99.90;;;;;;4986767;28;20029;-75
2022/06/15 01:53:22;;;;;;;5.78;2.88;;;15.00;99.90;;;;;;4983246;28;20183;-75
2022/06/15 01:56:03;;;;;;;5.25;3.05;;;14.90;99.90;;;;;;4986629;28;20026;-76
2022/06/15 01:58:33;;;;;;;9.45;3.20;;;14.90;99.90;;;;;;4984457;28;20419;-75
2022/06/15 02:01:31;;;;;;;6.60;3.10;;;15.00;99.90;;;;;;4987068;28;20027;-76
2022/06/15 02:04:27;;;;;;;7.70;3.40;;;14.90;99.90;;;;;;4968192;28;20097;-75
2022/06/15 02:07:15;;;;;;;8.70;3.20;;;15.00;99.90;;;;;;4970588;28;20091;-75
2022/06/15 02:10:07;;;;;;;6.80;2.42;;;15.00;99.90;;;;;;4980225;28;20033;-75
2022/06/15 02:12:56;;;;;;;5.03;2.83;;;14.90;99.90;;;;;;4991483;28;20026;-77
2022/06/15 02:15:25;;;;;;;4.85;2.83;;;14.90;99.90;;;;;;4986843;28;20023;-75
2022/06/15 02:17:53;;;;;;;5.90;3.08;;;14.90;99.90;;;;;;4989114;28;20022;-77
2022/06/15 02:20:28;;;;;;;6.57;2.90;;;14.90;99.90;;;;;;4987398;28;20027;-76
2022/06/15 02:22:59;;;;;;;5.53;2.70;;;15.00;99.90;;;;;;4985372;28;20022;-77
2022/06/15 02:25:29;;;;;;;5.72;3.25;;;14.90;99.90;;;;;;4986843;28;20061;-76
2022/06/15 02:27:55;;;;;;;7.05;3.10;;;14.90;99.90;;;;;;4966656;28;20050;-79
2022/06/15 02:30:24;;;;;;;5.75;2.67;;;14.90;99.90;;;;;;4987750;28;20022;-75
2022/06/15 02:32:51;;;;;;;5.90;2.80;;;14.90;99.90;;;;;;4986690;28;20034;-76
2022/06/15 02:35:18;;;;;;;5.30;2.85;;;14.90;99.90;;;;;;4985006;28;20018;-77
2022/06/15 02:37:45;;;;;;;7.75;3.50;;;14.90;99.90;;;;;;4986119;28;20022;-76
2022/06/15 02:40:19;;;;;;;9.55;2.78;;;14.90;99.90;;;;;;4984437;28;20332;-76
2022/06/15 02:42:45;;;;;;;6.60;2.92;;;14.90;99.90;;;;;;4985987;28;20026;-76
2022/06/15 02:45:18;;;;;;;6.03;3.03;;;14.90;99.90;;;;;;4984264;28;20435;-76
2022/06/15 02:47:45;;;;;;;5.18;2.90;;;14.90;99.90;;;;;;4987290;28;20027;-75
2022/06/15 02:50:13;;;;;;;5.68;2.60;;;14.90;99.90;;;;;;4989366;28;20165;-75
2022/06/15 02:52:43;;;;;;;6.00;3.38;;;14.90;99.90;;;;;;4982775;28;20045;-76
2022/06/15 02:55:10;;;;;;;6.88;3.15;;;14.90;99.90;;;;;;4984562;28;20031;-75
2022/06/15 02:57:49;;;;;;;6.90;3.60;;;14.90;99.90;;;;;;4970008;28;20018;-75
2022/06/15 03:00:18;;;;;;;6.50;2.97;;;14.90;99.90;;;;;;4982416;28;20038;-76
2022/06/15 03:02:43;;;;;;;6.85;2.58;;;14.90;99.90;;;;;;4988009;28;20042;-75
2022/06/15 03:05:09;;;;;;;5.75;3.13;;;14.90;99.90;;;;;;4985908;28;20034;-76
2022/06/15 03:07:35;;;;;;;9.00;3.75;;;14.90;99.90;;;;;;4979535;28;20034;-77
2022/06/15 03:10:01;;;;;;;6.85;3.10;;;14.90;99.90;;;;;;4987286;28;20415;-74
2022/06/15 03:12:26;;;;;;;6.57;3.28;;;14.90;99.90;;;;;;4985508;28;20036;-75
2022/06/15 03:14:52;;;;;;;8.00;2.95;;;14.90;99.90;;;;;;4985588;28;20034;-74
2022/06/15 03:17:18;;;;;;;8.15;3.70;;;14.80;99.90;;;;;;4986739;28;20104;-75
2022/06/15 03:19:44;;;;;;;7.30;2.70;;;14.90;99.90;;;;;;4984200;28;20031;-74
2022/06/15 03:22:10;;;;;;;5.55;3.13;;;14.90;99.90;;;;;;4986272;28;20049;-74
2022/06/15 03:24:36;;;;;;;6.68;2.75;;;14.90;99.90;;;;;;4985111;28;20034;-75
2022/06/15 03:27:02;;;;;;;7.10;2.80;;;14.90;99.90;;;;;;4980565;28;20433;-76
2022/06/15 03:29:30;;;;;;;5.40;2.75;;;14.90;99.90;;;;;;4984337;28;20033;-75
2022/06/15 03:31:56;;;;;;;6.35;2.92;;;14.90;99.90;;;;;;4987684;28;20042;-75
2022/06/15 03:34:21;;;;;;;9.60;4.35;;;14.90;99.90;;;;;;4985834;28;20019;-75
2022/06/15 03:36:47;;;;;;;6.43;3.42;;;14.90;99.90;;;;;;4987409;28;20036;-75
2022/06/15 03:39:13;;;;;;;7.15;3.22;;;14.90;99.90;;;;;;4992156;28;20173;-75
2022/06/15 03:41:39;;;;;;;6.70;3.03;;;15.00;99.90;;;;;;4991369;28;20038;-75
2022/06/15 03:44:04;;;;;;;8.90;3.45;;;15.00;99.90;;;;;;4982763;28;20030;-75
2022/06/15 03:46:30;;;;;;;6.65;3.15;;;15.00;99.90;;;;;;4989877;28;20041;-76
2022/06/15 03:48:56;;;;;;;6.82;3.08;;;15.00;99.90;;;;;;4988654;28;20553;-75
2022/06/15 03:51:22;;;;;;;5.88;3.35;;;15.00;99.90;;;;;;4984869;28;20026;-75
2022/06/15 03:53:47;;;;;;;7.03;3.58;;;15.10;99.90;;;;;;4990958;28;20041;-74
2022/06/15 03:56:13;;;;;;;5.72;2.90;;;15.10;99.90;;;;;;4971763;28;20117;-79
2022/06/15 03:58:39;;;;;;;5.15;3.28;;;15.10;99.90;;;;;;4987554;28;20038;-75
2022/06/15 04:01:05;;;;;;;6.65;3.00;;;15.10;99.90;;;;;;4985629;28;20041;-74
2022/06/15 04:03:31;;;;;;;5.53;2.88;;;15.10;99.90;;;;;;4990044;28;20068;-76
2022/06/15 04:05:58;;;;;;;5.07;2.90;;;15.10;99.90;;;;;;4980884;28;20038;-75
2022/06/15 04:08:38;;;;;;;5.95;2.90;;;15.10;99.90;;;;;;4973127;28;20027;-75
2022/06/15 04:11:04;;;;;;;6.60;3.47;;;15.20;99.90;;;;;;4988338;28;20062;-75
2022/06/15 04:13:29;;;;;;;5.20;2.85;;;15.20;99.90;;;;;;4992781;28;20026;-76
2022/06/15 04:15:55;;;;;;;5.43;2.90;;;15.20;99.90;;;;;;4989621;28;20034;-75
2022/06/15 04:18:21;;;;;;;4.22;2.45;;;15.20;99.90;;;;;;4971384;28;20042;-76
2022/06/15 04:20:47;;;;;;;4.50;2.40;;;15.30;99.90;;;;;;4985899;28;20056;-77
2022/06/15 04:23:15;;;;;;;6.47;2.78;;;15.30;99.90;;;;;;4989382;28;20215;-77
2022/06/15 04:25:45;;;;;;;6.93;3.03;;;15.30;99.90;;;;;;4993569;28;20034;-76
2022/06/15 04:28:14;;;;;;;6.22;2.70;;;15.40;99.90;;;;;;5003367;28;20034;-77
2022/06/15 04:30:40;;;;;;;5.50;2.65;;;15.40;99.90;;;;;;4986721;28;20553;-75
2022/06/15 04:33:06;;;;;;;6.30;2.72;;;15.40;99.90;;;;;;4986357;28;20439;-77
2022/06/15 04:35:32;;;;;;;3.90;2.22;;;15.40;99.90;;;;;;4972695;28;20026;-76
2022/06/15 04:37:58;;;;;;;4.40;2.47;;;15.50;99.90;;;;;;4987625;28;20030;-75
2022/06/15 04:40:24;;;;;;;6.78;2.67;;;15.50;99.90;;;;;;4973918;28;20033;-75
2022/06/15 04:42:50;;;;;;;6.47;2.60;;;15.60;99.90;;;;;;4987207;28;20033;-75
2022/06/15 04:45:17;;;;;;;5.15;2.05;;;15.60;99.90;;;;;;4986781;28;20027;-78
2022/06/15 04:47:43;;;;;;;4.00;2.00;;;15.50;99.90;;;;;;4984872;28;20069;-77
2022/06/15 04:50:11;;;;;;;6.38;2.58;;;15.50;99.90;;;;;;4965908;28;20031;-77
2022/06/15 04:52:41;;;;;;;6.68;2.60;;;15.60;99.90;;;;;;4979423;28;20024;-76
2022/06/15 04:55:08;;;;;;;6.50;2.53;;;15.60;99.90;;;;;;4985226;28;20495;-76
2022/06/15 04:57:33;;;;;;;5.40;2.55;;;15.60;99.90;;;;;;4996442;28;20492;-75
2022/06/15 04:59:59;;;;;;;4.47;2.20;;;15.60;99.90;;;;;;4989533;28;20042;-75
2022/06/15 05:02:25;;;;;;;4.85;2.30;;;15.70;99.90;;;;;;4982606;28;20038;-77
2022/06/15 05:04:52;;;;;;;6.78;2.33;;;15.70;99.90;;;;;;4987331;28;20046;-75
2022/06/15 05:07:18;;;;;;;5.45;2.20;;;15.70;99.90;;;;;;4988726;28;20058;-76
2022/06/15 05:09:47;;;;;;;6.20;2.42;;;15.80;99.90;;;;;;4983654;28;20065;-74
2022/06/15 05:12:13;;;;;;;5.47;2.42;;;15.80;99.90;;;;;;4986039;28;20110;-75
2022/06/15 05:14:39;;;;;;;4.82;2.22;;;15.90;99.90;;;;;;4986800;28;20379;-78
2022/06/15 05:17:05;;;;;;;3.58;1.95;;;15.90;99.90;;;;;;4978619;28;20076;-77
2022/06/15 05:19:30;;;;;;;5.13;2.00;;;15.90;99.90;;;;;;4981007;28;20030;-75
2022/06/15 05:21:56;;;;;;;4.80;2.08;;;15.90;99.90;;;;;;4977712;28;20057;-74
2022/06/15 05:24:22;;;;;;;5.85;2.88;;;15.90;99.90;;;;;;4973400;28;20070;-74
2022/06/15 05:26:47;;;;;;;4.40;2.65;;;15.90;99.90;;;;;;4983093;28;20065;-75
2022/06/15 05:29:13;;;;;;;5.20;2.83;;;16.00;99.90;;;;;;4981875;28;20038;-75
2022/06/15 05:31:39;;;;;;;7.80;2.78;;;16.00;99.90;;;;;;4986452;28;20498;-74
2022/06/15 05:34:06;;;;;;;6.57;3.42;;;16.10;99.90;;;;;;4980283;28;20406;-74
2022/06/15 05:36:35;;;;;;;7.07;3.63;;;16.10;99.90;;;;;;4981867;28;20037;-76
2022/06/15 05:39:03;;;;;;;9.02;3.50;;;16.10;99.90;;;;;;4964398;28;20118;-75
2022/06/15 05:41:30;;;;;;;5.65;3.08;;;16.10;99.90;;;;;;4985836;28;20033;-75
2022/06/15 05:43:57;;;;;;;5.47;2.85;;;16.10;99.90;;;;;;4982928;28;20034;-74
2022/06/15 05:46:26;;;;;;;8.40;3.55;;;16.10;99.90;;;;;;4960049;28;20049;-76
2022/06/15 05:48:53;;;;;;;7.00;2.85;;;16.00;99.90;;;;;;4975306;28;20080;-73
2022/06/15 05:51:20;;;;;;;5.15;2.58;;;16.00;99.90;;;;;;4982595;28;20065;-73
2022/06/15 05:53:45;;;;;;;5.75;2.78;;;15.90;99.90;;;;;;4978985;28;20521;-73
2022/06/15 05:56:11;;;;;;;4.55;2.50;;;15.90;99.90;;;;;;4978529;28;20058;-73
2022/06/15 05:58:37;;;;;;;6.38;2.75;;;15.90;99.90;;;;;;4984573;28;20097;-73
2022/06/15 06:01:11;;;;;;;3.80;2.10;;;15.90;99.90;;;;;;4983905;28;20034;-72
2022/06/15 06:03:37;;;;;;;5.88;2.65;;;15.80;99.90;;;;;;4963027;28;20031;-72
2022/06/15 06:06:04;;;;;;;4.75;1.90;;;15.80;99.90;;;;;;4984214;28;20475;-72
2022/06/15 06:08:30;;;;;;;4.90;2.40;;;15.80;99.90;;;;;;4982699;28;20097;-72
2022/06/15 06:10:56;;;;;;;8.57;2.50;;;15.90;99.90;;;;;;4970035;28;20491;-73
2022/06/15 06:13:22;;;;;;;4.97;2.25;;;15.90;99.90;;;;;;4990573;28;20035;-73
2022/06/15 06:15:47;;;;;;;5.28;2.80;;;16.00;99.90;;;;;;4982371;28;20512;-73
2022/06/15 06:18:13;;;;;;;8.68;2.60;;;16.10;99.90;;;;;;4979104;28;20406;-74
2022/06/15 06:20:39;;;;;;;5.28;2.60;;;16.20;99.90;;;;;;4986611;28;20996;-73
2022/06/15 06:23:05;;;;;;;4.22;2.70;;;16.30;99.90;;;;;;4985484;28;20573;-73
2022/06/15 06:25:31;;;;;;;6.82;2.83;;;16.40;99.90;;;;;;4983810;28;20026;-73
2022/06/15 06:27:56;;;;;;;5.25;2.40;;;16.40;99.90;;;;;;4982548;28;20030;-72
2022/06/15 06:30:22;;;;;;;5.47;2.38;;;16.50;99.90;;;;;;4980107;28;20022;-72
2022/06/15 06:32:49;;;;;;;4.15;2.10;;;16.50;99.90;;;;;;4982554;28;20023;-73
2022/06/15 06:35:16;;;;;;;5.53;2.17;;;16.50;99.90;;;;;;4974217;28;20069;-71
2022/06/15 06:37:43;;;;;;;5.25;1.85;;;16.60;99.90;;;;;;4973663;28;20073;-75
2022/06/15 06:40:14;;;;;;;5.07;1.42;;;16.60;99.90;;;;;;4976390;28;20042;-75
2022/06/15 06:42:42;;;;;;;4.80;1.58;;;16.70;99.90;;;;;;4967713;28;20028;-76
2022/06/15 06:45:11;;;;;;;7.80;2.35;;;16.70;99.90;;;;;;4981902;28;20529;-76
2022/06/15 06:47:36;;;;;;;2.88;1.38;;;16.80;99.90;;;;;;4982597;28;20136;-76
2022/06/15 06:50:02;;;;;;;3.83;1.63;;;16.80;99.90;;;;;;4969177;28;21055;-77
2022/06/15 06:52:30;;;;;;;8.57;1.98;;;16.80;99.90;;;;;;4976043;28;20495;-77
2022/06/15 06:54:56;;;;;;;4.32;2.13;;;16.90;99.90;;;;;;4967174;28;20054;-76
2022/06/15 06:57:22;;;;;;;7.78;2.60;;;16.90;99.90;;;;;;4988053;28;20031;-76
2022/06/15 06:59:47;;;;;;;7.07;2.08;;;17.00;99.90;;;;;;4983682;28;20064;-76
2022/06/15 07:02:13;;;;;;;7.70;2.33;;;17.00;99.90;;;;;;4976288;28;20038;-76
2022/06/15 07:04:39;;;;;;;3.63;1.92;;;17.00;99.90;;;;;;4966484;28;20034;-76
2022/06/15 07:07:04;;;;;;;6.50;2.30;;;17.00;99.90;;;;;;4979870;28;20030;-75
2022/06/15 07:09:30;;;;;;;7.03;1.70;;;17.00;99.90;;;;;;4963689;28;20121;-75
2022/06/15 07:11:56;;;;;;;5.70;1.85;;;17.10;99.90;;;;;;4986385;28;20048;-76
2022/06/15 07:14:21;;;;;;;3.83;1.70;;;17.20;99.90;;;;;;4975664;28;20034;-77
2022/06/15 07:16:47;;;;;;;6.97;2.20;;;17.20;99.90;;;;;;4987622;28;20081;-75
2022/06/15 07:19:13;;;;;;;5.20;1.95;;;17.20;99.90;;;;;;4993000;28;20446;-76
2022/06/15 07:21:40;;;;;;;5.07;1.75;;;17.20;99.90;;;;;;4986814;28;20037;-76
2022/06/15 07:24:07;;;;;;;4.53;1.70;;;17.30;99.90;;;;;;4987028;28;20105;-76
2022/06/15 07:26:38;;;;;;;5.85;1.95;;;17.30;99.90;;;;;;4991777;28;20499;-75
2022/06/15 07:29:04;;;;;;;4.18;1.70;;;17.40;99.90;;;;;;4986295;28;20487;-76
2022/06/15 07:31:33;;;;;;;3.88;1.50;;;17.50;99.90;;;;;;4984374;28;20386;-76
2022/06/15 07:34:00;;;;;;;4.07;1.85;;;17.50;99.90;;;;;;4988371;28;20034;-76
2022/06/15 07:36:25;;;;;;;6.55;1.73;;;17.50;99.90;;;;;;4984876;28;20026;-76
2022/06/15 07:38:52;;;;;;;3.75;1.40;;;17.50;99.90;;;;;;4992373;28;20486;-76
2022/06/15 07:41:19;;;;;;;2.53;1.30;;;17.60;99.90;;;;;;4975574;28;20461;-75
2022/06/15 07:43:45;;;;;;;5.95;2.13;;;17.60;99.90;;;;;;4984415;28;20403;-76
2022/06/15 07:46:11;;;;;;;5.05;2.13;;;17.70;99.90;;;;;;4984667;28;20407;-75
2022/06/15 07:51:38;;;;;;;5.55;2.08;;;17.80;99.90;;;;;;4985988;28;20639;-75
2022/06/15 07:54:06;;;;;;;5.45;1.63;;;17.90;99.90;;;;;;4986827;28;20039;-75
2022/06/15 07:56:32;;;;;;;3.58;1.60;;;17.90;99.90;;;;;;4986829;28;20552;-75
2022/06/15 07:58:58;;;;;;;4.68;1.80;;;18.00;99.90;;;;;;4982476;28;20285;-75
2022/06/15 08:01:25;;;;;;;5.13;1.85;;;18.00;99.90;;;;;;4969792;28;20033;-77
2022/06/15 08:03:51;;;;;;;4.47;1.60;;;17.90;99.90;;;;;;4987359;28;20030;-75
2022/06/15 08:06:17;;;;;;;3.80;1.75;;;18.00;99.90;;;;;;4989162;28;20038;-76
2022/06/15 08:08:44;;;;;;;4.15;1.65;;;18.10;99.90;;;;;;4985783;28;20153;-75
2022/06/15 08:11:10;;;;;;;2.10;1.30;;;18.30;99.90;;;;;;4986884;28;20033;-74
2022/06/15 08:13:36;;;;;;;4.18;1.65;;;18.40;99.90;;;;;;4966372;28;20046;-74
2022/06/15 08:16:02;;;;;;;4.25;1.73;;;18.50;99.90;;;;;;4990864;28;20132;-75
2022/06/15 08:18:32;;;;;;;3.05;1.63;;;18.70;99.90;;;;;;4994488;28;20425;-77
2022/06/15 08:21:07;;;;;;;3.58;1.40;;;18.90;99.90;;;;;;4990908;28;20057;-75
2022/06/15 08:23:37;;;;;;;2.30;1.27;;;19.00;99.70;;;;;;4982759;28;20035;-77
2022/06/15 08:26:08;;;;;;;2.10;1.10;;;19.00;98.70;;;;;;4986412;28;20121;-75
2022/06/15 08:28:38;;;;;;;2.20;1.25;;;18.90;98.80;;;;;;4968392;28;20034;-76
2022/06/15 08:31:04;;;;;;;1.95;1.00;;;18.80;98.80;;;;;;4986965;28;20035;-76
2022/06/15 08:33:30;;;;;;;4.28;1.30;;;18.70;98.50;;;;;;4985814;28;20061;-75
2022/06/15 08:35:57;;;;;;;4.95;1.38;;;18.70;98.60;;;;;;4983250;28;20067;-75
2022/06/15 08:38:25;;;;;;;2.90;1.30;;;18.70;98.90;;;;;;4987933;28;20030;-75
2022/06/15 08:40:59;;;;;;;3.00;1.55;;;18.60;99.10;;;;;;4966357;28;20046;-76
2022/06/15 08:43:31;;;;;;;2.65;1.20;;;18.60;99.30;;;;;;4986327;28;20026;-75
2022/06/15 08:46:09;;;;;;;2.70;1.27;;;18.60;99.60;;;;;;4987928;28;20033;-76
2022/06/15 08:48:58;;;;;;;4.80;1.50;;;18.50;99.70;;;;;;4984991;28;20060;-76
2022/06/15 08:51:39;;;;;;;3.63;1.40;;;18.60;97.90;;;;;;4988600;28;20076;-76
2022/06/15 08:54:17;;;;;;;4.25;1.40;;;18.50;98.50;;;;;;4983922;28;20029;-76
2022/06/15 08:56:56;;;;;;;2.72;1.27;;;18.40;98.00;;;;;;4977320;28;20514;-75
2022/06/15 08:59:40;;;;;;;3.75;1.23;;;18.40;98.70;;;;;;4963961;28;20037;-75
2022/06/15 09:02:17;;;;;;;4.13;1.33;;;18.50;98.70;;;;;;4983866;28;20034;-75
2022/06/15 09:05:09;;;;;;;9.25;2.10;;;18.50;98.60;;;;;;4987240;28;20042;-74
2022/06/15 09:08:29;;;;;;;6.00;1.50;;;18.50;97.80;;;;;;4985882;28;20030;-74
2022/06/15 09:11:04;;;;;;;3.15;1.50;;;18.60;97.90;;;;;;4977515;28;20501;-75
2022/06/15 09:13:54;;;;;;;4.07;1.50;;;18.60;98.30;;;;;;4979296;28;20026;-75
2022/06/15 09:16:30;;;;;;;6.15;1.58;;;18.70;98.40;;;;;;4988901;28;20029;-74
2022/06/15 09:19:08;;;;;;;7.38;2.78;;;18.90;98.60;;;;;;4963236;28;20037;-76
2022/06/15 09:22:06;;;;;;;4.65;2.08;;;19.10;98.10;;;;;;4987552;28;20031;-75
2022/06/15 09:24:47;;;;;;;4.90;2.20;;;19.30;96.40;;;;;;4982101;28;20034;-76
2022/06/15 09:27:31;;;;;;;2.90;1.20;;;19.40;96.10;;;;;;4985066;28;20110;-76
2022/06/15 09:30:04;;;;;;;3.42;1.55;;;19.40;96.60;;;;;;4984119;28;20460;-74
2022/06/15 09:32:43;;;;;;;2.33;1.20;;;19.40;96.70;;;;;;4981344;28;20054;-76
2022/06/15 09:35:16;;;;;;;4.10;1.30;;;19.40;96.10;;;;;;4982430;28;20030;-74
2022/06/15 09:37:46;;;;;;;4.35;1.65;;;19.30;96.50;;;;;;4985914;28;20109;-75
2022/06/15 09:40:12;;;;;;;2.90;1.35;;;19.40;96.80;;;;;;4982803;28;20092;-74
2022/06/15 09:43:06;;;;;;;5.18;1.75;;;19.50;97.30;;;;;;4985769;28;20032;-76
2022/06/15 09:45:40;;;;;;;5.50;1.90;;;19.60;97.00;;;;;;4981408;28;20509;-76
2022/06/15 09:48:31;;;;;;;3.67;2.05;;;19.80;96.50;;;;;;4981239;28;20380;-75
2022/06/15 09:51:16;;;;;;;6.03;1.90;;;19.90;95.80;;;;;;4980146;28;20027;-75
2022/06/15 09:54:11;;;;;;;4.10;1.50;;;20.00;95.20;;;;;;4980852;28;20037;-77
2022/06/15 09:56:37;;;;;;;2.53;1.27;;;20.00;94.40;;;;;;4982100;28;20533;-75
2022/06/15 09:59:12;;;;;;;4.10;1.70;;;20.00;94.80;;;;;;4986468;28;20038;-75
2022/06/15 10:01:42;;;;;;;3.67;1.40;;;20.10;93.70;;;;;;4988525;28;20039;-75
2022/06/15 10:04:26;;;;;;;3.70;1.65;;;20.10;93.70;;;;;;4987561;28;20042;-75
2022/06/15 10:06:53;;;;;;;6.32;2.63;;;20.10;94.00;;;;;;4983822;28;20105;-74
2022/06/15 10:09:26;;;;;;;4.30;1.60;;;20.00;92.00;;;;;;4965898;28;20129;-75
2022/06/15 10:11:56;;;;;;;2.40;1.20;;;20.00;92.90;;;;;;4990678;28;20125;-75
2022/06/15 10:14:42;;;;;;;2.72;1.33;;;20.10;94.10;;;;;;4987627;28;20050;-76
2022/06/15 10:17:24;;;;;;;5.40;1.73;;;20.10;94.50;;;;;;4989347;28;20061;-76
2022/06/15 10:19:53;;;;;;;2.78;1.25;;;20.20;92.60;;;;;;4986772;28;20026;-74
2022/06/15 10:22:37;;;;;;;5.20;1.80;;;20.20;93.20;;;;;;4987163;28;20070;-74
2022/06/15 10:25:06;;;;;;;3.22;1.60;;;20.30;92.70;;;;;;4988284;28;20097;-74
2022/06/15 10:27:36;;;;;;;3.83;1.88;;;20.30;92.90;;;;;;4979405;28;20041;-76
2022/06/15 10:30:11;;;;;;;5.22;1.55;;;20.30;93.10;;;;;;4993570;28;20117;-76
2022/06/15 10:32:39;;;;;;;3.85;1.63;;;20.50;93.30;;;;;;4980823;28;20041;-75
2022/06/15 10:35:05;;;;;;;3.85;1.35;;;20.50;92.60;;;;;;4970492;28;20058;-76
2022/06/15 10:37:41;;;;;;;4.60;1.55;;;20.40;92.80;;;;;;4982384;28;20061;-76
2022/06/15 10:40:39;;;;;;;3.15;1.40;;;20.40;92.10;;;;;;4986539;28;20034;-75
2022/06/15 10:43:37;;;;;;;5.40;1.80;;;20.30;93.10;;;;;;4986547;28;20084;-75
2022/06/15 10:46:05;;;;;;;3.40;1.63;;;20.30;92.90;;;;;;4984671;28;20034;-77
2022/06/15 10:48:45;;;;;;;3.55;1.60;;;20.20;92.90;;;;;;4977817;28;20034;-76
2022/06/15 10:51:16;;;;;;;5.15;1.60;;;20.20;93.60;;;;;;4985831;28;20097;-75
2022/06/15 10:54:10;;;;;;;6.30;2.00;;;20.30;93.40;;;;;;4994008;28;20028;-75
2022/06/15 11:02:42;;;;;;;4.55;1.92;;;20.60;92.10;;;;;;4992510;28;20042;-75
2022/06/15 11:05:13;;;;;;;3.22;1.80;;;20.70;91.60;;;;;;4978278;28;20113;-76
2022/06/15 11:07:43;;;;;;;5.15;1.70;;;20.90;91.90;;;;;;4987262;28;20430;-75
2022/06/15 11:10:29;;;;;;;3.07;1.80;;;21.00;91.00;;;;;;4988523;28;20033;-76
2022/06/15 11:13:02;;;;;;;3.65;1.90;;;21.10;90.40;;;;;;4988011;28;20056;-76
2022/06/15 11:18:45;;;;;;;3.83;1.35;;;21.60;88.90;;;;;;4988073;28;20037;-75
2022/06/15 11:21:17;;;;;;;2.80;1.48;;;22.00;87.50;;;;;;4992186;28;20039;-75
2022/06/15 11:23:51;;;;;;;6.28;4.05;;;22.70;84.80;;;;;;4988221;28;20037;-75
2022/06/15 11:29:36;;;;;;;3.10;1.60;;;24.10;75.50;;;;;;4987719;28;20053;-76
2022/06/15 11:32:05;;;;;;;;;;;24.00;72.60;;;;;;4984502;28;20023;-75
2022/06/15 11:34:34;;;;;;;3.67;1.85;;;23.50;74.00;;;;;;4989526;28;19997;-75
2022/06/15 11:37:17;;;;;;;5.20;1.95;;;23.10;72.80;;;;;;4980139;28;20022;-75
2022/06/15 11:39:50;;;;;;;3.08;1.67;;;23.20;75.30;;;;;;4972209;28;20083;-75
2022/06/15 11:42:18;;;;;;;6.00;2.20;;;25.40;75.30;;;;;;4993552;28;20076;-75
2022/06/15 11:44:44;;;;;;;2.97;1.55;;;27.60;64.20;;;;;;4985691;28;20030;-76
2022/06/15 11:47:48;;;;;;;3.45;1.40;;;27.60;62.20;;;;;;4990222;28;20041;-75
2022/06/15 11:50:40;;;;;;;2.80;1.10;;;28.90;59.10;;;;;;4984859;28;20034;-75
2022/06/15 11:53:24;;;;;;;2.33;1.15;;;28.90;56.90;;;;;;4988642;28;20093;-75
2022/06/15 11:56:13;;;;;;;6.72;1.65;;;28.80;55.70;;;;;;4989116;28;20113;-75
2022/06/15 11:58:49;;;;;;;4.00;1.83;;;27.80;52.30;;;;;;4983004;28;20030;-76
2022/06/15 12:01:40;;;;;;;3.50;1.45;;;27.10;55.40;;;;;;4981148;28;20039;-76
2022/06/15 12:04:37;;;;;;;4.03;1.60;;;27.40;56.80;;;;;;4968730;28;20498;-75
2022/06/15 12:07:07;;;;;;;3.00;1.30;;;28.70;54.00;;;;;;4984528;28;20034;-76
2022/06/15 12:09:54;;;;;;;4.75;1.48;;;29.70;52.60;;;;;;4989529;28;20026;-75
2022/06/15 12:12:44;;;;;;;4.30;1.70;;;30.50;48.30;;;;;;4985114;28;20085;-75
2022/06/15 12:15:19;;;;;;;3.85;1.90;;;29.80;47.90;;;;;;4982204;28;20407;-76
2022/06/15 12:18:03;;;;;;;3.33;1.75;;;30.00;48.80;;;;;;5000243;28;20454;-76
2022/06/15 12:20:45;;;;;;;2.42;1.60;;;30.60;48.10;;;;;;4982696;28;20042;-75
2022/06/15 12:23:39;;;;;;;2.85;1.50;;;29.70;46.40;;;;;;4978258;28;20027;-76
2022/06/15 12:26:31;;;;;;;2.33;1.40;;;29.10;50.20;;;;;;4988004;28;20446;-76
2022/06/15 12:29:50;;;;;;;2.90;1.52;;;28.50;50.50;;;;;;4974341;28;20050;-76
2022/06/15 12:34:59;;;;;;;4.72;1.45;;;26.70;52.30;;;;;;4984799;28;20072;-76
2022/06/15 12:37:40;;;;;;;3.25;1.55;;;26.50;52.00;;;;;;4967902;28;20035;-76
2022/06/15 12:40:43;;;;;;;3.00;1.27;;;26.60;52.80;;;;;;4981856;28;20026;-75
2022/06/15 12:43:32;;;;;;;3.88;1.80;;;26.60;54.00;;;;;;4984582;28;20034;-77
2022/06/15 12:46:09;;;;;;;3.65;1.65;;;26.60;52.90;;;;;;4987542;28;20034;-75
2022/06/15 12:48:46;;;;;;;4.78;1.58;;;26.70;53.60;;;;;;4977537;28;20034;-75
2022/06/15 12:51:40;;;;;;;3.20;1.55;;;26.30;52.10;;;;;;4980550;28;20186;-75
2022/06/15 12:54:14;;;;;;;4.82;1.60;;;26.30;54.20;;;;;;4987181;28;20026;-75
2022/06/15 12:57:01;;;;;;;3.30;1.60;;;26.70;52.20;;;;;;4977383;28;20509;-76
2022/06/15 12:59:38;;;;;;;2.78;1.23;;;26.60;52.20;;;;;;4979346;28;20509;-75
2022/06/15 13:02:15;;;;;;;3.05;1.40;;;26.40;52.70;;;;;;4984280;28;20042;-75
2022/06/15 13:05:06;;;;;;;3.92;1.52;;;26.00;54.10;;;;;;4980273;28;20023;-75
2022/06/15 13:07:35;;;;;;;6.05;2.50;;;25.80;52.50;;;;;;4968706;28;20414;-74
2022/06/15 13:10:07;;;;;;;2.42;1.55;;;25.50;54.40;;;;;;4969835;28;20041;-75
2022/06/15 13:12:50;;;;;;;5.53;1.83;;;25.30;55.20;;;;;;4973835;28;20022;-75
2022/06/15 13:15:51;;;;;;;3.65;1.40;;;25.90;52.90;;;;;;4981608;28;20031;-76
2022/06/15 13:18:20;;;;;;;3.83;1.63;;;28.40;53.00;;;;;;4984752;28;20537;-76
2022/06/15 13:20:46;;;;;;;3.63;1.70;;;30.60;48.70;;;;;;4987087;28;20053;-77
2022/06/15 13:23:15;;;;;;;4.35;1.42;;;32.00;45.90;;;;;;4985113;28;20018;-76
2022/06/15 13:25:51;;;;;;;3.25;1.63;;;32.90;45.00;;;;;;4981166;28;20042;-76
2022/06/15 13:28:21;;;;;;;4.82;1.75;;;34.30;43.90;;;;;;4978701;28;20041;-77
2022/06/15 13:30:47;;;;;;;3.70;1.50;;;35.30;41.80;;;;;;4978547;28;20022;-76
2022/06/15 13:33:13;;;;;;;1.95;1.30;;;35.90;40.80;;;;;;4982219;28;20521;-74